Time;durP1;ratioP1;P1;durP2;ratioP2;P2;SDS_P1;SDS_P2;PMS_P1;PMS_P2;Temp;Humidity;BMP_temperature;BMP_pressure;BME280_temperature;BME280_humidity;BME280_pressure;Samples;Min_cycle;Max_cycle;Signal;HPM_P1;HPM_P2
2023/04/13 00:00:20;;;;;;;27.10;18.70;;;;;;;3.04;99.76;98413.00;437035;1251;139209;-66
2023/04/13 00:10:26;;;;;;;24.40;18.80;;;;;;;2.96;99.98;98400.46;436937;1254;140106;-65
2023/04/13 00:20:32;;;;;;;23.90;17.60;;;;;;;2.98;100.00;98382.38;436878;1253;139513;-66
2023/04/13 00:30:38;;;;;;;24.40;19.30;;;;;;;2.96;100.00;98363.27;436601;1250;140344;-66
2023/04/13 00:40:44;;;;;;;25.30;19.00;;;;;;;2.94;100.00;98345.08;436254;1253;140317;-66
2023/04/13 00:50:50;;;;;;;27.00;19.00;;;;;;;2.85;100.00;98336.73;436442;1252;140128;-65
2023/04/13 01:00:56;;;;;;;23.10;17.60;;;;;;;2.85;100.00;98326.51;436627;1251;141240;-66
2023/04/13 01:11:05;;;;;;;24.20;18.20;;;;;;;2.88;100.00;98331.69;436279;1251;139493;-64
2023/04/13 01:21:16;;;;;;;27.90;19.10;;;;;;;2.85;100.00;98335.17;436858;1253;141271;-65
2023/04/13 01:31:23;;;;;;;21.90;16.70;;;;;;;2.77;100.00;98343.84;436735;1253;140988;-65
2023/04/13 01:41:27;;;;;;;;;;;;;;;2.65;100.00;98364.16;437323;1253;140406;-66
2023/04/13 01:51:36;;;;;;;25.20;17.80;;;;;;;2.51;100.00;98382.83;436972;1254;125777;-66
2023/04/13 02:01:41;;;;;;;26.70;20.10;;;;;;;2.45;100.00;98380.20;436863;1250;139976;-66
2023/04/13 02:11:48;;;;;;;24.80;19.00;;;;;;;2.46;100.00;98374.95;437124;1253;139748;-66
2023/04/13 02:21:54;;;;;;;25.30;18.80;;;;;;;2.51;100.00;98367.64;436980;1251;141174;-65
2023/04/13 02:32:00;;;;;;;26.20;18.80;;;;;;;2.58;100.00;98373.34;436356;1253;139876;-65
2023/04/13 02:42:06;;;;;;;22.90;17.70;;;;;;;2.59;100.00;98383.30;436765;1251;139179;-66
2023/04/13 02:52:12;;;;;;;30.20;21.00;;;;;;;2.59;100.00;98390.23;436163;1251;139655;-66
2023/04/13 03:02:18;;;;;;;26.50;20.60;;;;;;;2.56;100.00;98387.08;436801;1251;140439;-65
2023/04/13 03:12:25;;;;;;;28.50;20.70;;;;;;;2.44;100.00;98379.90;436824;1253;140991;-65
2023/04/13 03:22:31;;;;;;;26.20;19.50;;;;;;;2.26;100.00;98371.63;436640;1253;139428;-67
2023/04/13 03:32:37;;;;;;;27.90;21.40;;;;;;;2.07;100.00;98363.93;436596;1250;139396;-67
2023/04/13 03:42:43;;;;;;;27.40;20.30;;;;;;;2.00;100.00;98356.34;436669;1253;139459;-66
2023/04/13 03:52:49;;;;;;;29.00;19.70;;;;;;;2.01;100.00;98353.33;437015;1253;139250;-65
2023/04/13 04:02:54;;;;;;;26.00;18.10;;;;;;;2.24;100.00;98351.16;436647;1250;141180;-67
2023/04/13 04:13:00;;;;;;;27.70;18.90;;;;;;;2.55;100.00;98352.59;436107;1253;141595;-66
2023/04/13 04:23:08;;;;;;;24.90;17.60;;;;;;;2.81;100.00;98362.12;435732;1251;139268;-65
2023/04/13 04:33:14;;;;;;;24.30;18.70;;;;;;;3.06;100.00;98365.52;435888;1251;140587;-66
2023/04/13 04:43:20;;;;;;;24.90;17.90;;;;;;;3.54;100.00;98365.56;436247;1253;139289;-64
2023/04/13 04:53:26;;;;;;;23.60;18.60;;;;;;;4.23;100.00;98367.59;436575;1251;139686;-65
2023/04/13 05:03:32;;;;;;;25.00;18.30;;;;;;;4.81;100.00;98367.71;436194;1251;141290;-65
2023/04/13 05:13:39;;;;;;;27.50;18.80;;;;;;;5.19;99.99;98370.13;437083;1252;140511;-67
2023/04/13 05:23:45;;;;;;;19.00;16.10;;;;;;;7.28;99.99;98363.66;436512;1253;141139;-68
2023/04/13 05:33:51;;;;;;;18.40;15.90;;;;;;;16.69;92.62;98365.64;438016;1250;139325;-70
2023/04/13 05:43:57;;;;;;;16.50;14.80;;;;;;;20.12;72.15;98364.05;436305;1251;139743;-69
2023/04/13 05:54:03;;;;;;;17.10;14.90;;;;;;;16.91;61.11;98368.69;436571;1250;140028;-71
2023/04/13 06:04:10;;;;;;;17.20;14.10;;;;;;;14.48;61.36;98371.23;437127;1253;139718;-71
2023/04/13 06:14:16;;;;;;;;;;;;;;;16.60;60.78;98372.08;436798;1250;139031;-69
2023/04/13 06:24:22;;;;;;;15.60;14.00;;;;;;;19.20;57.67;98366.63;436999;1253;126159;-71
2023/04/13 06:34:28;;;;;;;15.80;14.30;;;;;;;23.90;52.51;98361.40;436548;1253;139469;-70
2023/04/13 06:44:34;;;;;;;16.30;14.80;;;;;;;27.70;47.75;98357.34;436469;1253;139327;-72
2023/04/13 06:54:39;;;;;;;15.00;13.80;;;;;;;31.52;43.37;98357.02;436901;1251;138904;-72
2023/04/13 07:04:45;;;;;;;18.00;16.50;;;;;;;32.98;39.71;98345.43;437682;1250;138966;-74
2023/04/13 07:14:51;;;;;;;13.70;12.60;;;;;;;33.63;35.97;98353.14;436778;1253;139846;-74
2023/04/13 07:24:56;;;;;;;13.00;12.00;;;;;;;35.81;33.82;98349.41;438861;1253;139503;-73
2023/04/13 07:35:02;;;;;;;13.90;12.70;;;;;;;36.47;31.11;98350.55;438889;1253;138980;-73
2023/04/13 07:45:10;;;;;;;11.70;10.70;;;;;;;37.55;29.68;98346.58;436410;1251;139620;-75
2023/04/13 07:55:16;;;;;;;11.40;10.50;;;;;;;38.96;27.43;98347.02;437115;1251;138884;-73
2023/04/13 08:05:22;;;;;;;12.40;11.50;;;;;;;35.66;27.03;98339.94;436765;1250;139310;-73
2023/04/13 08:15:29;;;;;;;11.30;10.50;;;;;;;33.21;27.77;98341.60;436742;1251;139089;-73
2023/04/13 08:25:40;;;;;;;10.70;9.70;;;;;;;34.08;26.82;98346.94;436605;1252;138911;-72
2023/04/13 08:35:46;;;;;;;10.30;9.40;;;;;;;32.74;26.92;98340.25;436666;1253;138723;-72
2023/04/13 08:45:52;;;;;;;10.90;9.90;;;;;;;29.54;28.03;98335.96;436398;1251;138820;-72
2023/04/13 08:56:01;;;;;;;8.30;7.60;;;;;;;25.15;29.96;98339.01;436590;1251;138777;-71
2023/04/13 09:06:11;;;;;;;9.60;8.50;;;;;;;22.69;31.65;98346.04;436850;1252;139510;-70
2023/04/13 09:16:17;;;;;;;10.90;9.90;;;;;;;21.27;33.46;98361.21;436776;1253;138860;-70
2023/04/13 09:26:22;;;;;;;13.90;8.80;;;;;;;20.68;34.46;98360.98;436828;1252;140118;-70
2023/04/13 09:36:31;;;;;;;10.70;9.70;;;;;;;19.95;35.37;98350.93;436704;1251;141120;-70
2023/04/13 09:46:38;;;;;;;10.70;7.90;;;;;;;19.47;36.15;98338.02;439821;1251;139164;-69
2023/04/13 09:56:53;;;;;;;9.80;8.80;;;;;;;19.29;36.85;98336.45;436835;1250;138706;-70
2023/04/13 10:06:59;;;;;;;10.20;7.60;;;;;;;19.05;37.40;98337.73;436790;1250;139802;-69
2023/04/13 10:17:18;;;;;;;8.20;6.60;;;;;;;18.79;36.93;98341.52;436836;1253;138811;-69
2023/04/13 10:27:29;;;;;;;7.20;6.50;;;;;;;17.90;36.54;98339.66;437527;1249;138956;-72
2023/04/13 10:37:36;;;;;;;7.70;7.00;;;;;;;17.85;36.60;98340.71;437523;1251;139279;-70
2023/04/13 10:47:42;;;;;;;4.90;4.40;;;;;;;17.62;37.09;98339.42;437438;1253;165177;-70
2023/04/13 10:57:48;;;;;;;7.10;4.50;;;;;;;17.47;36.15;98334.84;437149;1249;138885;-71
2023/04/13 11:07:55;;;;;;;10.40;3.80;;;;;;;17.04;36.10;98338.34;437250;1253;138904;-70
2023/04/13 11:18:02;;;;;;;6.70;3.90;;;;;;;17.03;36.00;98343.23;437164;1253;138873;-70
2023/04/13 11:28:09;;;;;;;4.60;3.60;;;;;;;16.94;35.61;98347.17;437037;1252;138967;-69
2023/04/13 11:38:19;;;;;;;5.10;3.90;;;;;;;16.62;36.01;98348.88;436842;1251;138780;-69
2023/04/13 11:48:26;;;;;;;6.80;3.60;;;;;;;16.33;36.23;98351.95;436521;1251;138718;-69
2023/04/13 11:58:33;;;;;;;5.00;4.20;;;;;;;16.11;37.06;98349.92;436690;1250;138739;-69
2023/04/13 12:08:38;;;;;;;5.00;4.00;;;;;;;16.20;37.38;98346.30;436612;1253;139153;-69
2023/04/13 12:18:46;;;;;;;5.20;4.10;;;;;;;16.10;37.75;98341.36;436650;1253;138790;-69
2023/04/13 12:28:57;;;;;;;3.90;3.40;;;;;;;16.06;37.98;98329.23;436968;1251;138397;-69
2023/04/13 12:39:04;;;;;;;7.20;5.10;;;;;;;15.91;38.46;98332.88;436897;1253;139003;-69
2023/04/13 12:49:09;;;;;;;6.70;5.90;;;;;;;16.06;38.68;98329.61;438966;1253;139671;-69
2023/04/13 12:59:15;;;;;;;6.00;4.80;;;;;;;16.32;38.60;98333.54;437178;1251;140325;-69
2023/04/13 13:09:21;;;;;;;7.10;4.40;;;;;;;16.61;38.77;98334.98;436803;1253;138842;-69
2023/04/13 13:19:27;;;;;;;5.10;4.50;;;;;;;16.96;38.35;98333.73;437275;1253;138563;-70
2023/04/13 13:29:35;;;;;;;5.20;4.40;;;;;;;16.92;38.29;98326.66;436862;1251;138926;-72
2023/04/13 13:39:41;;;;;;;5.80;4.20;;;;;;;16.66;38.50;98331.92;437108;1251;140831;-69
2023/04/13 13:49:47;;;;;;;5.70;4.90;;;;;;;16.33;38.55;98337.14;436950;1253;139986;-70
2023/04/13 13:59:53;;;;;;;7.80;3.90;;;;;;;16.03;38.52;98327.38;437014;1253;138406;-70
2023/04/13 14:09:59;;;;;;;4.80;4.00;;;;;;;15.80;38.37;98334.58;436056;1253;139642;-69
2023/04/13 14:20:09;;;;;;;6.00;4.20;;;;;;;15.85;38.31;98339.05;435963;1254;139617;-69
2023/04/13 14:30:17;;;;;;;5.10;3.70;;;;;;;15.92;38.14;98340.70;436877;1254;139435;-70
2023/04/13 14:40:23;;;;;;;4.90;3.20;;;;;;;15.91;38.33;98346.45;436941;1254;139770;-70
2023/04/13 14:50:29;;;;;;;5.00;3.70;;;;;;;15.67;38.59;98350.55;436531;1253;139365;-69
2023/04/13 15:00:41;;;;;;;5.10;3.20;;;;;;;15.39;39.20;98348.06;437559;1256;138480;-69
2023/04/13 15:10:47;;;;;;;4.20;3.70;;;;;;;15.05;39.25;98350.27;437256;1255;138478;-69
2023/04/13 15:20:53;;;;;;;3.30;2.90;;;;;;;14.73;39.79;98354.89;438760;1251;179990;-79
2023/04/13 15:30:59;;;;;;;4.00;3.00;;;;;;;14.42;40.68;98363.41;439486;1251;138888;-79
2023/04/13 15:41:08;;;;;;;8.80;3.30;;;;;;;14.29;41.25;98371.10;440520;1254;139789;-79
2023/04/13 15:51:13;;;;;;;5.10;2.70;;;;;;;14.38;41.47;98372.40;439783;1252;139327;-78
2023/04/13 16:01:19;;;;;;;4.40;2.90;;;;;;;14.54;41.40;98380.02;439892;1251;139197;-78
2023/04/13 16:11:26;;;;;;;2.90;2.60;;;;;;;14.65;41.50;98383.16;439578;1251;138428;-76
2023/04/13 16:21:34;;;;;;;3.00;2.70;;;;;;;14.56;41.61;98382.10;439793;1251;138728;-77
2023/04/13 16:31:43;;;;;;;5.00;2.20;;;;;;;14.40;41.79;98389.68;438889;1254;139617;-78
2023/04/13 16:41:49;;;;;;;3.60;3.00;;;;;;;14.21;42.20;98394.65;439205;1250;139409;-78
2023/04/13 16:51:55;;;;;;;3.50;3.20;;;;;;;14.02;42.59;98402.89;439061;1251;138473;-78
2023/04/13 17:02:02;;;;;;;7.00;4.40;;;;;;;13.87;43.39;98407.13;438758;1251;139616;-77
2023/04/13 17:12:08;;;;;;;8.90;6.20;;;;;;;13.69;44.98;98414.59;439188;1253;138874;-77
2023/04/13 17:22:14;;;;;;;11.40;6.90;;;;;;;13.55;46.03;98425.40;438901;1252;139016;-78
2023/04/13 17:32:20;;;;;;;6.90;5.90;;;;;;;13.42;46.92;98436.13;438783;1251;138912;-78
2023/04/13 17:42:27;;;;;;;13.40;8.80;;;;;;;13.28;47.49;98449.15;439019;1251;138372;-77
2023/04/13 17:52:32;;;;;;;8.60;6.20;;;;;;;13.15;48.10;98460.08;438919;1251;139125;-78
2023/04/13 18:02:38;;;;;;;20.10;11.50;;;;;;;13.04;48.35;98469.45;439321;1251;138981;-78
2023/04/13 18:12:49;;;;;;;13.50;7.90;;;;;;;12.96;48.60;98480.78;439279;1251;138603;-77
2023/04/13 18:22:55;;;;;;;12.90;9.40;;;;;;;12.93;48.70;98483.53;438976;1253;138578;-78
2023/04/13 18:33:01;;;;;;;8.60;7.70;;;;;;;12.86;48.83;98486.72;439216;1250;139001;-77
2023/04/13 18:43:07;;;;;;;8.10;6.20;;;;;;;12.79;49.04;98492.11;439286;1251;138403;-77
2023/04/13 18:53:13;;;;;;;9.70;7.00;;;;;;;12.72;49.16;98504.01;439468;1251;139225;-77
2023/04/13 19:03:18;;;;;;;9.50;6.90;;;;;;;12.66;48.91;98511.22;439575;1251;138705;-78
2023/04/13 19:13:24;;;;;;;7.60;6.40;;;;;;;12.63;48.41;98516.73;439578;1251;138599;-78
2023/04/13 19:23:30;;;;;;;9.90;6.30;;;;;;;12.60;48.18;98519.91;439925;1251;138235;-78
2023/04/13 19:33:37;;;;;;;11.40;8.10;;;;;;;12.51;48.74;98516.92;439454;1251;138876;-78
2023/04/13 19:43:43;;;;;;;12.90;8.70;;;;;;;12.38;49.57;98517.84;439565;1253;139069;-80
2023/04/13 19:53:49;;;;;;;12.00;9.80;;;;;;;12.29;49.79;98520.60;440123;1250;138720;-77
2023/04/13 20:04:00;;;;;;;10.50;7.90;;;;;;;12.21;50.17;98520.42;439928;1251;139298;-76
2023/04/13 20:14:11;;;;;;;12.90;8.30;;;;;;;12.14;50.26;98518.35;439932;1254;139619;-75
2023/04/13 20:24:18;;;;;;;14.10;8.50;;;;;;;12.09;50.23;98514.24;440855;1254;139582;-77
2023/04/13 20:34:26;;;;;;;10.20;8.90;;;;;;;12.03;50.66;98516.30;440008;1250;140605;-75
2023/04/13 20:44:36;;;;;;;15.80;9.40;;;;;;;11.96;51.43;98526.52;440527;1250;139074;-77
2023/04/13 20:54:42;;;;;;;13.80;11.20;;;;;;;11.67;54.36;98528.83;440175;1251;138474;-75
2023/04/13 21:04:48;;;;;;;17.60;11.90;;;;;;;11.39;56.35;98531.00;440115;1250;139085;-76
2023/04/13 21:14:54;;;;;;;16.60;13.10;;;;;;;11.19;58.05;98534.97;440026;1251;139725;-76
2023/04/13 21:25:00;;;;;;;19.50;13.90;;;;;;;10.89;58.93;98547.21;439687;1251;139764;-76
2023/04/13 21:35:07;;;;;;;24.80;18.90;;;;;;;10.72;59.55;98545.78;439855;1254;138735;-78
2023/04/13 21:45:13;;;;;;;19.70;15.30;;;;;;;10.63;59.94;98543.70;439754;1251;140175;-75
2023/04/13 21:55:19;;;;;;;21.20;16.10;;;;;;;10.53;60.15;98541.52;440238;1250;139250;-76
2023/04/13 22:05:24;;;;;;;14.70;12.90;;;;;;;10.44;60.56;98536.52;439900;1250;140508;-78
2023/04/13 22:15:30;;;;;;;15.20;11.70;;;;;;;10.34;61.08;98542.64;439657;1251;140367;-77
2023/04/13 22:25:36;;;;;;;18.80;13.70;;;;;;;10.26;61.73;98545.20;439657;1254;141289;-76
2023/04/13 22:35:42;;;;;;;18.00;14.30;;;;;;;10.17;62.94;98549.10;439610;1250;140892;-77
2023/04/13 22:45:56;;;;;;;15.90;12.50;;;;;;;10.02;63.90;98547.62;440039;1250;141209;-77
2023/04/13 22:56:01;;;;;;;16.10;12.40;;;;;;;9.88;64.87;98550.96;439681;1250;140525;-77
2023/04/13 23:06:08;;;;;;;16.10;13.70;;;;;;;9.67;66.08;98553.30;440093;1250;139452;-76
2023/04/13 23:16:13;;;;;;;18.80;14.10;;;;;;;9.49;67.24;98546.80;440156;1251;139645;-76
2023/04/13 23:26:19;;;;;;;20.60;15.20;;;;;;;9.42;68.15;98548.86;439701;1253;139360;-76
2023/04/13 23:36:26;;;;;;;23.40;16.00;;;;;;;9.28;69.37;98557.59;439873;1250;139163;-75
2023/04/13 23:46:32;;;;;;;21.90;17.50;;;;;;;8.99;70.18;98549.80;439923;1253;139628;-76
2023/04/13 23:56:38;;;;;;;18.70;15.60;;;;;;;8.87;71.33;98535.86;439787;1250;139692;-76
